Terminal Aerodrome Forecast
Issued by NWS Binghamton, NY

Home | Current Version | Previous Version | Text Only | Print | Product List | Glossary On
Versions: 1 2 3 4 5 6 7 8 9 10 11 12 13 14 15 16 17 18
000
FTUS41 KBGM 091738
TAFSYR
TAF
KSYR 091738Z 0918/1018 05005KT P6SM BKN025 OVC035
     FM092100 VRB03KT 4SM -SHSN BKN015 OVC025
      TEMPO 0921/0924 2SM -SN
     FM100000 VRB03KT 1 1/2SM -SN OVC012
     FM100400 23004KT P6SM BKN025 OVC050
     FM101300 25008KT 2SM -SN OVC012=

USA.gov is the U.S. government's official web portal to all federal, state and local government web resources and services.